sensor_id;sensor_type;location;lat;lon;timestamp;temperature;humidity
37786;DHT22;23625;48.784;9.336;2023-02-11T00:01:24;-1.80;99.90
37786;DHT22;23625;48.784;9.336;2023-02-11T00:03:50;-1.90;99.90
37786;DHT22;23625;48.784;9.336;2023-02-11T00:06:15;-1.90;99.90
37786;DHT22;23625;48.784;9.336;2023-02-11T00:08:41;-2.00;99.90
37786;DHT22;23625;48.784;9.336;2023-02-11T00:11:13;-2.00;99.90
37786;DHT22;23625;48.784;9.336;2023-02-11T00:13:39;-2.10;99.90
37786;DHT22;23625;48.784;9.336;2023-02-11T00:16:07;-2.10;99.90
37786;DHT22;23625;48.784;9.336;2023-02-11T00:18:33;-2.00;99.90
37786;DHT22;23625;48.784;9.336;2023-02-11T00:21:05;-2.00;99.90
37786;DHT22;23625;48.784;9.336;2023-02-11T00:23:31;-2.10;99.90
37786;DHT22;23625;48.784;9.336;2023-02-11T00:25:57;-2.20;99.90
37786;DHT22;23625;48.784;9.336;2023-02-11T00:28:22;-2.20;99.90
37786;DHT22;23625;48.784;9.336;2023-02-11T00:30:55;-2.20;99.90
37786;DHT22;23625;48.784;9.336;2023-02-11T00:33:21;-2.30;99.90
37786;DHT22;23625;48.784;9.336;2023-02-11T00:35:46;-2.30;99.90
37786;DHT22;23625;48.784;9.336;2023-02-11T00:38:12;-2.30;99.90
37786;DHT22;23625;48.784;9.336;2023-02-11T00:40:38;-2.30;99.90
37786;DHT22;23625;48.784;9.336;2023-02-11T00:43:03;-2.30;99.90
37786;DHT22;23625;48.784;9.336;2023-02-11T00:45:29;-2.20;99.90
37786;DHT22;23625;48.784;9.336;2023-02-11T00:47:55;-2.20;99.90
37786;DHT22;23625;48.784;9.336;2023-02-11T00:50:21;-2.10;99.90
37786;DHT22;23625;48.784;9.336;2023-02-11T00:52:46;-2.10;99.90
37786;DHT22;23625;48.784;9.336;2023-02-11T00:55:12;-2.00;99.90
37786;DHT22;23625;48.784;9.336;2023-02-11T00:57:38;-2.00;99.90
37786;DHT22;23625;48.784;9.336;2023-02-11T01:00:05;-2.00;99.90
37786;DHT22;23625;48.784;9.336;2023-02-11T01:02:31;-1.90;99.90
37786;DHT22;23625;48.784;9.336;2023-02-11T01:04:56;-1.90;99.90
37786;DHT22;23625;48.784;9.336;2023-02-11T01:07:24;-1.90;99.90
37786;DHT22;23625;48.784;9.336;2023-02-11T01:09:49;-2.00;99.90
37786;DHT22;23625;48.784;9.336;2023-02-11T01:12:15;-2.00;99.90
37786;DHT22;23625;48.784;9.336;2023-02-11T01:14:41;-2.10;99.90
37786;DHT22;23625;48.784;9.336;2023-02-11T01:17:06;-2.00;99.90
37786;DHT22;23625;48.784;9.336;2023-02-11T01:19:32;-2.00;99.90
37786;DHT22;23625;48.784;9.336;2023-02-11T01:21:57;-2.00;99.90
37786;DHT22;23625;48.784;9.336;2023-02-11T01:24:23;-2.00;99.90
37786;DHT22;23625;48.784;9.336;2023-02-11T01:26:49;-1.90;99.90
37786;DHT22;23625;48.784;9.336;2023-02-11T01:29:14;-1.90;99.90
37786;DHT22;23625;48.784;9.336;2023-02-11T01:31:40;-1.70;99.90
37786;DHT22;23625;48.784;9.336;2023-02-11T01:34:05;-1.40;99.90
37786;DHT22;23625;48.784;9.336;2023-02-11T01:36:31;-1.30;99.90
37786;DHT22;23625;48.784;9.336;2023-02-11T01:38:57;-1.30;99.90
37786;DHT22;23625;48.784;9.336;2023-02-11T01:41:22;-1.30;99.90
37786;DHT22;23625;48.784;9.336;2023-02-11T01:43:49;-1.30;99.90
37786;DHT22;23625;48.784;9.336;2023-02-11T01:46:31;-1.30;99.90
37786;DHT22;23625;48.784;9.336;2023-02-11T01:49:10;-1.30;99.90
37786;DHT22;23625;48.784;9.336;2023-02-11T01:51:41;-1.30;99.90
37786;DHT22;23625;48.784;9.336;2023-02-11T01:54:09;-1.40;99.90
37786;DHT22;23625;48.784;9.336;2023-02-11T01:56:54;-1.40;99.90
37786;DHT22;23625;48.784;9.336;2023-02-11T02:00:12;-1.40;99.90
37786;DHT22;23625;48.784;9.336;2023-02-11T02:05:28;-1.30;99.90
37786;DHT22;23625;48.784;9.336;2023-02-11T02:10:26;-1.10;99.90
37786;DHT22;23625;48.784;9.336;2023-02-11T02:12:52;-1.10;99.90
37786;DHT22;23625;48.784;9.336;2023-02-11T02:15:48;-1.20;99.90
37786;DHT22;23625;48.784;9.336;2023-02-11T02:26:36;-1.40;99.90
37786;DHT22;23625;48.784;9.336;2023-02-11T02:35:04;-1.50;99.90
37786;DHT22;23625;48.784;9.336;2023-02-11T02:37:35;-1.60;99.90
37786;DHT22;23625;48.784;9.336;2023-02-11T02:40:08;-1.60;99.90
37786;DHT22;23625;48.784;9.336;2023-02-11T02:42:34;-1.60;99.90
37786;DHT22;23625;48.784;9.336;2023-02-11T02:45:00;-1.60;99.90
37786;DHT22;23625;48.784;9.336;2023-02-11T02:47:26;-1.70;99.90
37786;DHT22;23625;48.784;9.336;2023-02-11T02:49:51;-1.70;99.90
37786;DHT22;23625;48.784;9.336;2023-02-11T02:52:21;-1.80;99.90
37786;DHT22;23625;48.784;9.336;2023-02-11T03:03:07;-1.60;99.90
37786;DHT22;23625;48.784;9.336;2023-02-11T03:05:57;-1.50;99.90
37786;DHT22;23625;48.784;9.336;2023-02-11T03:08:29;-1.40;99.90
37786;DHT22;23625;48.784;9.336;2023-02-11T03:10:58;-1.40;99.90
37786;DHT22;23625;48.784;9.336;2023-02-11T03:13:28;-1.30;99.90
37786;DHT22;23625;48.784;9.336;2023-02-11T03:16:01;-1.20;99.90
37786;DHT22;23625;48.784;9.336;2023-02-11T03:18:28;-1.10;99.90
37786;DHT22;23625;48.784;9.336;2023-02-11T03:20:56;-1.10;99.90
37786;DHT22;23625;48.784;9.336;2023-02-11T03:26:13;-1.10;99.90
37786;DHT22;23625;48.784;9.336;2023-02-11T03:28:56;-1.20;99.90
37786;DHT22;23625;48.784;9.336;2023-02-11T03:31:57;-1.20;99.90
37786;DHT22;23625;48.784;9.336;2023-02-11T03:34:38;-1.30;99.90
37786;DHT22;23625;48.784;9.336;2023-02-11T03:37:15;-1.30;99.90
37786;DHT22;23625;48.784;9.336;2023-02-11T03:39:59;-1.30;99.90
37786;DHT22;23625;48.784;9.336;2023-02-11T03:42:30;-1.20;99.90
37786;DHT22;23625;48.784;9.336;2023-02-11T03:45:07;-1.10;99.90
37786;DHT22;23625;48.784;9.336;2023-02-11T03:47:36;-1.00;99.90
37786;DHT22;23625;48.784;9.336;2023-02-11T03:50:06;-0.90;99.90
37786;DHT22;23625;48.784;9.336;2023-02-11T03:52:33;-0.80;99.90
37786;DHT22;23625;48.784;9.336;2023-02-11T03:55:02;-0.80;99.90
37786;DHT22;23625;48.784;9.336;2023-02-11T03:57:30;-0.80;99.90
37786;DHT22;23625;48.784;9.336;2023-02-11T03:59:58;-0.80;99.90
37786;DHT22;23625;48.784;9.336;2023-02-11T04:02:30;-0.70;99.90
37786;DHT22;23625;48.784;9.336;2023-02-11T04:04:57;-0.70;99.90
37786;DHT22;23625;48.784;9.336;2023-02-11T04:07:23;-0.60;99.90
37786;DHT22;23625;48.784;9.336;2023-02-11T04:09:48;-0.60;99.90
37786;DHT22;23625;48.784;9.336;2023-02-11T04:12:14;-0.60;99.90
37786;DHT22;23625;48.784;9.336;2023-02-11T04:14:40;-0.60;99.90
37786;DHT22;23625;48.784;9.336;2023-02-11T04:17:05;-0.70;99.90
37786;DHT22;23625;48.784;9.336;2023-02-11T04:19:31;-0.70;99.90
37786;DHT22;23625;48.784;9.336;2023-02-11T04:21:56;-0.70;99.90
37786;DHT22;23625;48.784;9.336;2023-02-11T04:24:22;-0.70;99.90
37786;DHT22;23625;48.784;9.336;2023-02-11T04:26:48;-0.80;99.90
37786;DHT22;23625;48.784;9.336;2023-02-11T04:29:13;-0.70;99.90
37786;DHT22;23625;48.784;9.336;2023-02-11T04:31:39;-0.70;99.90
37786;DHT22;23625;48.784;9.336;2023-02-11T04:34:04;-0.70;99.90
37786;DHT22;23625;48.784;9.336;2023-02-11T04:36:30;-0.70;99.90
37786;DHT22;23625;48.784;9.336;2023-02-11T04:38:55;-0.60;99.90
37786;DHT22;23625;48.784;9.336;2023-02-11T04:41:21;-0.50;99.90
37786;DHT22;23625;48.784;9.336;2023-02-11T04:43:47;-0.30;99.90
37786;DHT22;23625;48.784;9.336;2023-02-11T04:46:12;-0.20;99.90
37786;DHT22;23625;48.784;9.336;2023-02-11T04:48:38;-0.10;99.90
37786;DHT22;23625;48.784;9.336;2023-02-11T04:51:03;0.00;99.90
37786;DHT22;23625;48.784;9.336;2023-02-11T04:53:29;0.00;99.90
37786;DHT22;23625;48.784;9.336;2023-02-11T04:55:55;0.10;99.90
37786;DHT22;23625;48.784;9.336;2023-02-11T04:58:20;0.10;99.90
37786;DHT22;23625;48.784;9.336;2023-02-11T05:00:46;0.20;99.90
37786;DHT22;23625;48.784;9.336;2023-02-11T05:03:12;0.20;99.90
37786;DHT22;23625;48.784;9.336;2023-02-11T05:05:41;0.30;99.90
37786;DHT22;23625;48.784;9.336;2023-02-11T05:08:08;0.30;99.90
37786;DHT22;23625;48.784;9.336;2023-02-11T05:10:34;0.30;99.90
37786;DHT22;23625;48.784;9.336;2023-02-11T05:12:59;0.40;99.90
37786;DHT22;23625;48.784;9.336;2023-02-11T05:15:25;0.50;99.90
37786;DHT22;23625;48.784;9.336;2023-02-11T05:17:51;0.50;99.90
37786;DHT22;23625;48.784;9.336;2023-02-11T05:20:17;0.50;99.90
37786;DHT22;23625;48.784;9.336;2023-02-11T05:22:43;0.60;99.90
37786;DHT22;23625;48.784;9.336;2023-02-11T05:25:08;0.60;99.90
37786;DHT22;23625;48.784;9.336;2023-02-11T05:27:34;0.70;99.90
37786;DHT22;23625;48.784;9.336;2023-02-11T05:30:00;0.70;99.90
37786;DHT22;23625;48.784;9.336;2023-02-11T05:32:25;0.60;99.90
37786;DHT22;23625;48.784;9.336;2023-02-11T05:34:51;0.60;99.90
37786;DHT22;23625;48.784;9.336;2023-02-11T05:37:16;0.60;99.90
37786;DHT22;23625;48.784;9.336;2023-02-11T05:39:42;0.60;99.90
37786;DHT22;23625;48.784;9.336;2023-02-11T05:42:08;0.50;99.90
37786;DHT22;23625;48.784;9.336;2023-02-11T05:44:33;0.50;99.90
37786;DHT22;23625;48.784;9.336;2023-02-11T05:46:59;0.50;99.90
37786;DHT22;23625;48.784;9.336;2023-02-11T05:49:24;0.50;99.90
37786;DHT22;23625;48.784;9.336;2023-02-11T05:51:50;0.50;99.90
37786;DHT22;23625;48.784;9.336;2023-02-11T05:54:15;0.50;99.90
37786;DHT22;23625;48.784;9.336;2023-02-11T05:56:41;0.60;99.90
37786;DHT22;23625;48.784;9.336;2023-02-11T05:59:07;0.50;99.90
37786;DHT22;23625;48.784;9.336;2023-02-11T06:01:32;0.60;99.90
37786;DHT22;23625;48.784;9.336;2023-02-11T06:03:58;0.50;99.90
37786;DHT22;23625;48.784;9.336;2023-02-11T06:06:24;0.50;99.90
37786;DHT22;23625;48.784;9.336;2023-02-11T06:08:50;0.60;99.90
37786;DHT22;23625;48.784;9.336;2023-02-11T06:11:16;0.60;99.90
37786;DHT22;23625;48.784;9.336;2023-02-11T06:13:42;0.60;99.90
37786;DHT22;23625;48.784;9.336;2023-02-11T06:16:08;0.60;99.90
37786;DHT22;23625;48.784;9.336;2023-02-11T06:18:33;0.60;99.90
37786;DHT22;23625;48.784;9.336;2023-02-11T06:20:59;0.70;99.90
37786;DHT22;23625;48.784;9.336;2023-02-11T06:23:25;0.70;99.90
37786;DHT22;23625;48.784;9.336;2023-02-11T06:25:51;0.70;99.90
37786;DHT22;23625;48.784;9.336;2023-02-11T06:28:17;0.60;99.90
37786;DHT22;23625;48.784;9.336;2023-02-11T06:30:42;0.60;99.90
37786;DHT22;23625;48.784;9.336;2023-02-11T06:33:08;0.60;99.90
37786;DHT22;23625;48.784;9.336;2023-02-11T06:35:34;0.60;99.90
37786;DHT22;23625;48.784;9.336;2023-02-11T06:38:00;0.60;99.90
37786;DHT22;23625;48.784;9.336;2023-02-11T06:40:26;0.60;99.90
37786;DHT22;23625;48.784;9.336;2023-02-11T06:42:51;0.50;99.90
37786;DHT22;23625;48.784;9.336;2023-02-11T06:45:17;0.50;99.90
37786;DHT22;23625;48.784;9.336;2023-02-11T06:47:44;0.50;99.90
37786;DHT22;23625;48.784;9.336;2023-02-11T06:50:13;0.50;99.90
37786;DHT22;23625;48.784;9.336;2023-02-11T06:52:39;0.60;99.90
37786;DHT22;23625;48.784;9.336;2023-02-11T06:55:05;0.60;99.90
37786;DHT22;23625;48.784;9.336;2023-02-11T06:57:31;0.70;99.90
37786;DHT22;23625;48.784;9.336;2023-02-11T06:59:57;0.70;99.90
37786;DHT22;23625;48.784;9.336;2023-02-11T07:02:22;0.70;99.90
37786;DHT22;23625;48.784;9.336;2023-02-11T07:04:48;0.80;99.90
37786;DHT22;23625;48.784;9.336;2023-02-11T07:07:14;0.90;99.90
37786;DHT22;23625;48.784;9.336;2023-02-11T07:09:39;1.00;99.90
37786;DHT22;23625;48.784;9.336;2023-02-11T07:12:05;1.00;99.90
37786;DHT22;23625;48.784;9.336;2023-02-11T07:14:31;1.10;99.90
37786;DHT22;23625;48.784;9.336;2023-02-11T07:16:57;1.10;99.90
37786;DHT22;23625;48.784;9.336;2023-02-11T07:19:23;1.20;99.90
37786;DHT22;23625;48.784;9.336;2023-02-11T07:21:48;1.20;99.90
37786;DHT22;23625;48.784;9.336;2023-02-11T07:24:14;1.30;99.90
37786;DHT22;23625;48.784;9.336;2023-02-11T07:26:39;1.30;99.90
37786;DHT22;23625;48.784;9.336;2023-02-11T07:29:05;1.40;99.90
37786;DHT22;23625;48.784;9.336;2023-02-11T07:31:31;1.40;99.90
37786;DHT22;23625;48.784;9.336;2023-02-11T07:33:59;1.50;99.90
37786;DHT22;23625;48.784;9.336;2023-02-11T07:36:26;1.50;99.90
37786;DHT22;23625;48.784;9.336;2023-02-11T07:38:52;1.50;99.90
37786;DHT22;23625;48.784;9.336;2023-02-11T07:41:20;1.70;99.90
37786;DHT22;23625;48.784;9.336;2023-02-11T07:43:47;1.70;99.90
37786;DHT22;23625;48.784;9.336;2023-02-11T07:46:24;1.70;99.90
37786;DHT22;23625;48.784;9.336;2023-02-11T07:48:50;1.70;99.90
37786;DHT22;23625;48.784;9.336;2023-02-11T07:51:27;1.80;99.90
37786;DHT22;23625;48.784;9.336;2023-02-11T07:53:54;1.90;99.90
37786;DHT22;23625;48.784;9.336;2023-02-11T07:56:21;1.90;99.90
37786;DHT22;23625;48.784;9.336;2023-02-11T07:58:47;2.00;99.90
37786;DHT22;23625;48.784;9.336;2023-02-11T08:01:23;1.70;99.90
37786;DHT22;23625;48.784;9.336;2023-02-11T08:03:55;2.10;99.90
37786;DHT22;23625;48.784;9.336;2023-02-11T08:06:24;2.00;99.90
37786;DHT22;23625;48.784;9.336;2023-02-11T08:08:50;2.00;99.90
37786;DHT22;23625;48.784;9.336;2023-02-11T08:11:25;2.00;99.90
37786;DHT22;23625;48.784;9.336;2023-02-11T08:13:51;2.10;99.90
37786;DHT22;23625;48.784;9.336;2023-02-11T08:16:21;2.10;99.90
37786;DHT22;23625;48.784;9.336;2023-02-11T08:18:48;2.10;99.90
37786;DHT22;23625;48.784;9.336;2023-02-11T08:21:14;2.10;99.90
37786;DHT22;23625;48.784;9.336;2023-02-11T08:23:41;2.30;99.90
37786;DHT22;23625;48.784;9.336;2023-02-11T08:26:11;2.30;99.90
37786;DHT22;23625;48.784;9.336;2023-02-11T08:28:38;2.40;99.90
37786;DHT22;23625;48.784;9.336;2023-02-11T08:31:06;2.40;99.90
37786;DHT22;23625;48.784;9.336;2023-02-11T08:33:32;2.60;99.90
37786;DHT22;23625;48.784;9.336;2023-02-11T08:35:58;2.70;99.90
37786;DHT22;23625;48.784;9.336;2023-02-11T08:38:24;2.80;99.90
37786;DHT22;23625;48.784;9.336;2023-02-11T08:40:50;2.90;99.90
37786;DHT22;23625;48.784;9.336;2023-02-11T08:43:15;2.90;99.90
37786;DHT22;23625;48.784;9.336;2023-02-11T08:45:41;2.90;99.90
37786;DHT22;23625;48.784;9.336;2023-02-11T08:48:06;2.80;99.80
37786;DHT22;23625;48.784;9.336;2023-02-11T08:50:32;2.80;99.90
37786;DHT22;23625;48.784;9.336;2023-02-11T08:52:58;3.00;99.90
37786;DHT22;23625;48.784;9.336;2023-02-11T08:55:24;3.20;98.00
37786;DHT22;23625;48.784;9.336;2023-02-11T08:57:49;3.30;98.20
37786;DHT22;23625;48.784;9.336;2023-02-11T09:00:16;3.50;96.20
37786;DHT22;23625;48.784;9.336;2023-02-11T09:02:42;3.80;95.20
37786;DHT22;23625;48.784;9.336;2023-02-11T09:05:08;4.10;94.20
37786;DHT22;23625;48.784;9.336;2023-02-11T09:07:34;4.30;92.90
37786;DHT22;23625;48.784;9.336;2023-02-11T09:09:59;4.50;92.10
37786;DHT22;23625;48.784;9.336;2023-02-11T09:12:25;4.70;88.00
37786;DHT22;23625;48.784;9.336;2023-02-11T09:14:50;4.80;85.10
37786;DHT22;23625;48.784;9.336;2023-02-11T09:17:16;4.70;85.20
37786;DHT22;23625;48.784;9.336;2023-02-11T09:19:41;4.70;85.50
37786;DHT22;23625;48.784;9.336;2023-02-11T09:22:07;4.90;86.60
37786;DHT22;23625;48.784;9.336;2023-02-11T09:24:33;5.00;85.90
37786;DHT22;23625;48.784;9.336;2023-02-11T09:26:58;5.20;86.70
37786;DHT22;23625;48.784;9.336;2023-02-11T09:29:24;5.40;85.10
37786;DHT22;23625;48.784;9.336;2023-02-11T09:31:49;5.50;83.30
37786;DHT22;23625;48.784;9.336;2023-02-11T09:34:15;5.70;83.40
37786;DHT22;23625;48.784;9.336;2023-02-11T09:36:41;5.90;79.30
37786;DHT22;23625;48.784;9.336;2023-02-11T09:39:17;5.90;77.10
37786;DHT22;23625;48.784;9.336;2023-02-11T09:44:31;5.70;77.20
37786;DHT22;23625;48.784;9.336;2023-02-11T09:50:22;5.90;77.90
37786;DHT22;23625;48.784;9.336;2023-02-11T09:53:01;5.90;76.30
37786;DHT22;23625;48.784;9.336;2023-02-11T09:55:34;5.70;77.00
37786;DHT22;23625;48.784;9.336;2023-02-11T09:58:11;5.70;77.60
37786;DHT22;23625;48.784;9.336;2023-02-11T10:00:43;5.80;77.00
37786;DHT22;23625;48.784;9.336;2023-02-11T10:14:20;6.70;75.00
37786;DHT22;23625;48.784;9.336;2023-02-11T10:16:57;6.80;74.20
37786;DHT22;23625;48.784;9.336;2023-02-11T10:19:54;7.00;72.90
37786;DHT22;23625;48.784;9.336;2023-02-11T10:23:09;7.30;71.70
37786;DHT22;23625;48.784;9.336;2023-02-11T10:25:37;7.50;71.40
37786;DHT22;23625;48.784;9.336;2023-02-11T10:28:18;8.10;72.70
37786;DHT22;23625;48.784;9.336;2023-02-11T10:33:52;8.70;68.40
37786;DHT22;23625;48.784;9.336;2023-02-11T10:36:17;9.00;67.40
37786;DHT22;23625;48.784;9.336;2023-02-11T10:38:43;9.10;66.90
37786;DHT22;23625;48.784;9.336;2023-02-11T10:41:20;9.10;65.80
37786;DHT22;23625;48.784;9.336;2023-02-11T10:43:50;8.90;64.80
37786;DHT22;23625;48.784;9.336;2023-02-11T10:46:20;9.20;65.80
37786;DHT22;23625;48.784;9.336;2023-02-11T10:48:49;9.40;65.00
37786;DHT22;23625;48.784;9.336;2023-02-11T10:51:27;9.70;64.10
37786;DHT22;23625;48.784;9.336;2023-02-11T10:56:36;9.70;63.30
37786;DHT22;23625;48.784;9.336;2023-02-11T11:01:58;9.90;63.00
37786;DHT22;23625;48.784;9.336;2023-02-11T11:07:16;10.30;63.00
37786;DHT22;23625;48.784;9.336;2023-02-11T11:09:54;10.50;62.00
37786;DHT22;23625;48.784;9.336;2023-02-11T11:15:29;10.70;59.20
37786;DHT22;23625;48.784;9.336;2023-02-11T11:18:16;10.60;58.80
37786;DHT22;23625;48.784;9.336;2023-02-11T11:23:39;10.90;60.00
37786;DHT22;23625;48.784;9.336;2023-02-11T11:26:13;11.10;59.40
37786;DHT22;23625;48.784;9.336;2023-02-11T11:29:01;11.10;59.60
37786;DHT22;23625;48.784;9.336;2023-02-11T11:31:34;11.40;59.40
37786;DHT22;23625;48.784;9.336;2023-02-11T11:34:16;11.40;58.30
37786;DHT22;23625;48.784;9.336;2023-02-11T11:36:43;11.30;58.30
37786;DHT22;23625;48.784;9.336;2023-02-11T11:39:27;11.40;58.60
37786;DHT22;23625;48.784;9.336;2023-02-11T11:42:02;11.40;58.10
37786;DHT22;23625;48.784;9.336;2023-02-11T11:44:35;11.50;58.30
37786;DHT22;23625;48.784;9.336;2023-02-11T11:47:21;11.50;57.30
37786;DHT22;23625;48.784;9.336;2023-02-11T11:52:46;11.00;58.10
37786;DHT22;23625;48.784;9.336;2023-02-11T11:55:21;10.90;59.20
37786;DHT22;23625;48.784;9.336;2023-02-11T11:57:49;11.00;59.80
37786;DHT22;23625;48.784;9.336;2023-02-11T12:11:15;11.90;57.80
37786;DHT22;23625;48.784;9.336;2023-02-11T12:43:39;9.90;64.60
37786;DHT22;23625;48.784;9.336;2023-02-11T12:55:07;9.60;68.20
37786;DHT22;23625;48.784;9.336;2023-02-11T12:57:35;9.60;68.90
37786;DHT22;23625;48.784;9.336;2023-02-11T13:00:18;9.60;69.10
37786;DHT22;23625;48.784;9.336;2023-02-11T13:03:00;9.60;69.40
37786;DHT22;23625;48.784;9.336;2023-02-11T13:05:44;9.60;69.00
37786;DHT22;23625;48.784;9.336;2023-02-11T13:08:32;9.50;70.60
37786;DHT22;23625;48.784;9.336;2023-02-11T13:11:02;9.40;71.20
37786;DHT22;23625;48.784;9.336;2023-02-11T13:13:34;9.50;72.30
37786;DHT22;23625;48.784;9.336;2023-02-11T13:16:12;9.50;71.90
37786;DHT22;23625;48.784;9.336;2023-02-11T13:26:58;9.80;71.40
37786;DHT22;23625;48.784;9.336;2023-02-11T13:32:13;9.60;74.40
37786;DHT22;23625;48.784;9.336;2023-02-11T13:39:58;9.70;74.80
37786;DHT22;23625;48.784;9.336;2023-02-11T13:42:24;9.70;75.50
37786;DHT22;23625;48.784;9.336;2023-02-11T13:44:50;9.70;77.10
37786;DHT22;23625;48.784;9.336;2023-02-11T13:47:28;9.70;76.80
37786;DHT22;23625;48.784;9.336;2023-02-11T13:49:55;9.80;76.70
37786;DHT22;23625;48.784;9.336;2023-02-11T13:54:55;10.00;77.10
37786;DHT22;23625;48.784;9.336;2023-02-11T13:57:29;10.30;74.60
37786;DHT22;23625;48.784;9.336;2023-02-11T14:11:47;10.80;72.50
37786;DHT22;23625;48.784;9.336;2023-02-11T14:14:14;10.90;70.90
37786;DHT22;23625;48.784;9.336;2023-02-11T14:19:31;11.10;70.60
37786;DHT22;23625;48.784;9.336;2023-02-11T14:22:05;11.00;69.60
37786;DHT22;23625;48.784;9.336;2023-02-11T14:32:46;10.50;73.60
37786;DHT22;23625;48.784;9.336;2023-02-11T14:43:21;10.30;75.40
37786;DHT22;23625;48.784;9.336;2023-02-11T14:45:52;10.60;73.30
37786;DHT22;23625;48.784;9.336;2023-02-11T14:48:19;10.50;74.30
37786;DHT22;23625;48.784;9.336;2023-02-11T14:50:50;10.40;74.10
37786;DHT22;23625;48.784;9.336;2023-02-11T14:53:22;10.60;73.80
37786;DHT22;23625;48.784;9.336;2023-02-11T14:55:50;10.40;74.20
37786;DHT22;23625;48.784;9.336;2023-02-11T14:58:21;10.40;74.50
37786;DHT22;23625;48.784;9.336;2023-02-11T15:08:24;10.10;75.20
37786;DHT22;23625;48.784;9.336;2023-02-11T15:10:52;10.30;74.40
37786;DHT22;23625;48.784;9.336;2023-02-11T15:13:21;10.30;74.80
37786;DHT22;23625;48.784;9.336;2023-02-11T15:15:54;10.00;75.80
37786;DHT22;23625;48.784;9.336;2023-02-11T15:18:23;9.90;75.40
37786;DHT22;23625;48.784;9.336;2023-02-11T15:20:51;9.90;75.00
37786;DHT22;23625;48.784;9.336;2023-02-11T15:23:24;9.70;75.50
37786;DHT22;23625;48.784;9.336;2023-02-11T15:25:50;9.60;76.50
37786;DHT22;23625;48.784;9.336;2023-02-11T15:28:24;9.50;75.60
37786;DHT22;23625;48.784;9.336;2023-02-11T15:30:57;9.30;76.20
37786;DHT22;23625;48.784;9.336;2023-02-11T15:33:24;9.10;77.20
37786;DHT22;23625;48.784;9.336;2023-02-11T15:35:50;9.10;76.80
37786;DHT22;23625;48.784;9.336;2023-02-11T15:38:16;8.90;77.70
37786;DHT22;23625;48.784;9.336;2023-02-11T15:40:52;8.90;78.50
37786;DHT22;23625;48.784;9.336;2023-02-11T15:43:18;8.80;79.60
37786;DHT22;23625;48.784;9.336;2023-02-11T15:45:54;8.70;79.90
37786;DHT22;23625;48.784;9.336;2023-02-11T15:48:34;8.60;81.60
37786;DHT22;23625;48.784;9.336;2023-02-11T15:51:07;8.50;83.40
37786;DHT22;23625;48.784;9.336;2023-02-11T15:53:39;8.40;85.00
37786;DHT22;23625;48.784;9.336;2023-02-11T15:56:21;8.40;86.30
37786;DHT22;23625;48.784;9.336;2023-02-11T15:58:50;8.30;88.50
37786;DHT22;23625;48.784;9.336;2023-02-11T16:01:17;8.30;88.80
37786;DHT22;23625;48.784;9.336;2023-02-11T16:03:48;8.20;90.00
37786;DHT22;23625;48.784;9.336;2023-02-11T16:06:26;8.20;91.10
37786;DHT22;23625;48.784;9.336;2023-02-11T16:11:35;8.00;92.30
37786;DHT22;23625;48.784;9.336;2023-02-11T16:14:15;7.90;93.10
37786;DHT22;23625;48.784;9.336;2023-02-11T16:16:45;7.90;93.90
37786;DHT22;23625;48.784;9.336;2023-02-11T16:19:17;7.80;95.20
37786;DHT22;23625;48.784;9.336;2023-02-11T16:21:43;7.70;95.10
37786;DHT22;23625;48.784;9.336;2023-02-11T16:24:39;7.70;95.60
37786;DHT22;23625;48.784;9.336;2023-02-11T16:27:29;7.70;95.80
37786;DHT22;23625;48.784;9.336;2023-02-11T16:29:58;7.60;96.20
37786;DHT22;23625;48.784;9.336;2023-02-11T16:32:28;7.60;96.70
37786;DHT22;23625;48.784;9.336;2023-02-11T16:34:56;7.50;97.20
37786;DHT22;23625;48.784;9.336;2023-02-11T16:37:23;7.40;97.60
37786;DHT22;23625;48.784;9.336;2023-02-11T16:39:52;7.50;98.20
37786;DHT22;23625;48.784;9.336;2023-02-11T16:42:18;7.40;98.50
37786;DHT22;23625;48.784;9.336;2023-02-11T16:44:43;7.40;98.50
37786;DHT22;23625;48.784;9.336;2023-02-11T16:47:21;7.40;98.80
37786;DHT22;23625;48.784;9.336;2023-02-11T16:49:48;7.40;98.90
37786;DHT22;23625;48.784;9.336;2023-02-11T16:52:15;7.30;99.30
37786;DHT22;23625;48.784;9.336;2023-02-11T16:54:41;7.30;99.50
37786;DHT22;23625;48.784;9.336;2023-02-11T16:57:15;7.30;99.90
37786;DHT22;23625;48.784;9.336;2023-02-11T16:59:42;7.30;99.90
37786;DHT22;23625;48.784;9.336;2023-02-11T17:02:24;7.30;99.90
37786;DHT22;23625;48.784;9.336;2023-02-11T17:04:52;7.30;99.90
37786;DHT22;23625;48.784;9.336;2023-02-11T17:07:18;7.20;99.90
37786;DHT22;23625;48.784;9.336;2023-02-11T17:09:43;7.20;99.90
37786;DHT22;23625;48.784;9.336;2023-02-11T17:12:09;7.10;99.90
37786;DHT22;23625;48.784;9.336;2023-02-11T17:14:35;7.10;99.90
37786;DHT22;23625;48.784;9.336;2023-02-11T17:17:00;7.10;99.90
37786;DHT22;23625;48.784;9.336;2023-02-11T17:19:26;7.10;99.90
37786;DHT22;23625;48.784;9.336;2023-02-11T17:21:52;7.10;99.90
37786;DHT22;23625;48.784;9.336;2023-02-11T17:24:19;7.10;99.90
37786;DHT22;23625;48.784;9.336;2023-02-11T17:26:46;7.10;99.90
37786;DHT22;23625;48.784;9.336;2023-02-11T17:29:17;7.10;99.90
37786;DHT22;23625;48.784;9.336;2023-02-11T17:31:43;7.00;99.90
37786;DHT22;23625;48.784;9.336;2023-02-11T17:34:09;7.00;99.90
37786;DHT22;23625;48.784;9.336;2023-02-11T17:36:35;6.90;99.90
37786;DHT22;23625;48.784;9.336;2023-02-11T17:39:03;6.80;99.90
37786;DHT22;23625;48.784;9.336;2023-02-11T17:41:28;6.80;99.90
37786;DHT22;23625;48.784;9.336;2023-02-11T17:43:58;6.70;99.90
37786;DHT22;23625;48.784;9.336;2023-02-11T17:46:23;6.60;99.90
37786;DHT22;23625;48.784;9.336;2023-02-11T17:48:49;6.50;99.90
37786;DHT22;23625;48.784;9.336;2023-02-11T17:51:21;6.50;99.90
37786;DHT22;23625;48.784;9.336;2023-02-11T17:53:47;6.50;99.90
37786;DHT22;23625;48.784;9.336;2023-02-11T17:56:12;6.40;99.90
37786;DHT22;23625;48.784;9.336;2023-02-11T17:58:38;6.40;99.90
37786;DHT22;23625;48.784;9.336;2023-02-11T18:01:04;6.30;99.90
37786;DHT22;23625;48.784;9.336;2023-02-11T18:03:29;6.30;99.90
37786;DHT22;23625;48.784;9.336;2023-02-11T18:06:00;6.20;99.90
37786;DHT22;23625;48.784;9.336;2023-02-11T18:08:26;6.10;99.90
37786;DHT22;23625;48.784;9.336;2023-02-11T18:10:51;6.10;99.90
37786;DHT22;23625;48.784;9.336;2023-02-11T18:13:17;6.00;99.90
37786;DHT22;23625;48.784;9.336;2023-02-11T18:15:43;6.00;99.90
37786;DHT22;23625;48.784;9.336;2023-02-11T18:18:08;6.00;99.90
37786;DHT22;23625;48.784;9.336;2023-02-11T18:20:34;6.00;99.90
37786;DHT22;23625;48.784;9.336;2023-02-11T18:23:00;6.10;99.90
37786;DHT22;23625;48.784;9.336;2023-02-11T18:25:25;5.80;99.90
37786;DHT22;23625;48.784;9.336;2023-02-11T18:27:51;5.80;99.90
37786;DHT22;23625;48.784;9.336;2023-02-11T18:30:18;5.80;99.90
37786;DHT22;23625;48.784;9.336;2023-02-11T18:32:44;5.70;99.90
37786;DHT22;23625;48.784;9.336;2023-02-11T18:35:11;5.70;99.90
37786;DHT22;23625;48.784;9.336;2023-02-11T18:37:39;5.70;99.90
37786;DHT22;23625;48.784;9.336;2023-02-11T18:40:06;5.60;99.90
37786;DHT22;23625;48.784;9.336;2023-02-11T18:42:31;5.60;99.90
37786;DHT22;23625;48.784;9.336;2023-02-11T18:44:58;5.50;99.90
37786;DHT22;23625;48.784;9.336;2023-02-11T18:47:24;5.60;99.90
37786;DHT22;23625;48.784;9.336;2023-02-11T18:49:50;5.50;99.90